Time;durP1;ratioP1;P1;durP2;ratioP2;P2;SDS_P1;SDS_P2;PMS_P1;PMS_P2;Temp;Humidity;BMP_temperature;BMP_pressure;BME280_temperature;BME280_humidity;BME280_pressure;Samples;Min_cycle;Max_cycle;Signal;HPM_P1;HPM_P2
2022/03/03 00:01:41;;;;;;;29.23;16.35;;;;;;;-145.18;100.00;47631.31;4949439;28;20279;-61
2022/03/03 00:04:07;;;;;;;24.63;14.03;;;;;;;-145.18;100.00;47650.88;4949736;28;20043;-62
2022/03/03 00:06:34;;;;;;;25.52;14.02;;;;;;;-145.18;100.00;47656.72;4949909;28;20157;-61
2022/03/03 00:09:00;;;;;;;28.35;15.27;;;;;;;-145.18;100.00;47680.16;4949829;28;20114;-61
2022/03/03 00:11:25;;;;;;;31.97;16.10;;;;;;;-145.18;100.00;47652.81;4949049;28;20126;-61
2022/03/03 00:13:51;;;;;;;28.67;15.20;;;;;;;-145.18;100.00;47646.97;4949756;28;20408;-62
2022/03/03 00:16:16;;;;;;;27.80;15.10;;;;;;;-145.18;100.00;47652.81;4949163;28;20051;-62
2022/03/03 00:18:41;;;;;;;27.90;15.60;;;;;;;-145.18;100.00;47674.31;4949573;28;20492;-61
2022/03/03 00:21:07;;;;;;;28.53;16.10;;;;;;;-145.18;100.00;47672.34;4949770;28;20214;-61
2022/03/03 00:23:33;;;;;;;29.17;15.93;;;;;;;-145.18;100.00;47662.59;4949214;28;20121;-61
2022/03/03 00:25:59;;;;;;;27.23;15.43;;;;;;;-145.18;100.00;47666.50;4949221;28;20047;-61
2022/03/03 00:28:26;;;;;;;27.00;16.08;;;;;;;-145.18;100.00;47654.78;4949407;28;20516;-61
2022/03/03 00:30:52;;;;;;;27.67;15.07;;;;;;;-145.18;100.00;47668.44;4949136;28;20035;-61
2022/03/03 00:33:17;;;;;;;25.30;14.93;;;;;;;-145.18;100.00;47697.75;4948798;28;20405;-61
2022/03/03 00:35:43;;;;;;;26.83;15.73;;;;;;;-145.18;100.00;47697.75;4950093;28;20505;-61
2022/03/03 00:38:09;;;;;;;26.27;14.70;;;;;;;-145.18;100.00;47680.16;4949062;28;20039;-61
2022/03/03 00:40:35;;;;;;;29.02;15.70;;;;;;;-145.18;100.00;47729.00;4948940;28;20182;-61
2022/03/03 00:43:01;;;;;;;27.73;15.60;;;;;;;-145.18;100.00;47680.16;4948833;28;20027;-62
2022/03/03 00:45:26;;;;;;;26.47;15.17;;;;;;;-145.18;100.00;47689.94;4949065;28;20074;-61
2022/03/03 00:47:51;;;;;;;27.03;14.73;;;;;;;-145.18;100.00;47648.91;4948740;28;20047;-62
2022/03/03 00:50:17;;;;;;;28.20;15.50;;;;;;;-145.18;100.00;47687.97;4949493;28;20122;-61
2022/03/03 00:52:42;;;;;;;28.57;15.40;;;;;;;-145.18;100.00;47674.31;4948807;28;20047;-62
2022/03/03 00:55:08;;;;;;;23.73;14.00;;;;;;;-145.18;100.00;47672.34;4949110;28;20058;-62
2022/03/03 00:57:34;;;;;;;25.57;15.20;;;;;;;-145.18;100.00;47676.25;4948387;28;20619;-61
2022/03/03 01:00:01;;;;;;;25.23;14.83;;;;;;;-145.18;100.00;47662.59;4949269;28;20032;-61
2022/03/03 01:02:26;;;;;;;28.65;15.95;;;;;;;-145.18;100.00;47687.97;4948672;28;20416;-61
2022/03/03 01:04:51;;;;;;;26.03;15.00;;;;;;;-145.18;100.00;47660.63;4948636;28;20043;-61
2022/03/03 01:07:17;;;;;;;26.27;15.53;;;;;;;-145.18;100.00;47715.34;4949265;28;20051;-62
2022/03/03 01:09:42;;;;;;;25.27;14.13;;;;;;;-145.18;100.00;47730.97;4948874;28;20043;-61
2022/03/03 01:12:08;;;;;;;27.03;15.07;;;;;;;-145.18;100.00;47703.63;4948754;28;20493;-61
2022/03/03 01:14:33;;;;;;;26.43;15.03;;;;;;;-145.18;100.00;47723.16;4948959;28;20047;-61
2022/03/03 01:16:59;;;;;;;27.27;14.80;;;;;;;-145.18;100.00;47703.63;4931311;28;20121;-62
2022/03/03 01:19:24;;;;;;;25.53;14.27;;;;;;;-145.18;100.00;47719.25;4949226;28;20047;-61
2022/03/03 01:21:50;;;;;;;24.43;13.47;;;;;;;-145.18;100.00;47686.03;4948723;28;20054;-62
2022/03/03 01:24:15;;;;;;;23.83;14.07;;;;;;;-145.18;100.00;47666.50;4948894;28;20134;-61
2022/03/03 01:26:41;;;;;;;24.97;14.60;;;;;;;-145.18;100.00;47656.72;4948398;28;20035;-61
2022/03/03 01:29:06;;;;;;;26.17;13.73;;;;;;;-145.18;100.00;47652.81;4947686;28;20488;-60
2022/03/03 01:31:32;;;;;;;29.50;13.63;;;;;;;-145.18;100.00;47672.34;4948400;28;20039;-61
2022/03/03 01:33:57;;;;;;;28.93;14.50;;;;;;;-145.18;100.00;47662.59;4949532;28;20126;-61
2022/03/03 01:36:22;;;;;;;27.37;14.07;;;;;;;-145.18;100.00;47678.22;4948287;28;20069;-62
2022/03/03 01:38:48;;;;;;;27.73;14.50;;;;;;;-145.18;100.00;47652.81;4948442;28;20230;-62
2022/03/03 01:41:13;;;;;;;26.47;13.70;;;;;;;-145.18;100.00;47648.91;4948580;28;20134;-61
2022/03/03 01:43:39;;;;;;;23.13;13.60;;;;;;;-145.18;100.00;47656.72;4948605;28;20087;-61
2022/03/03 01:46:05;;;;;;;29.37;14.57;;;;;;;-145.18;100.00;47674.31;4948823;28;20039;-62
2022/03/03 01:48:30;;;;;;;26.37;13.53;;;;;;;-145.18;100.00;47666.50;4948993;28;20423;-61
2022/03/03 01:50:56;;;;;;;27.53;14.40;;;;;;;-145.18;100.00;47652.81;4948943;28;20297;-61
2022/03/03 01:53:21;;;;;;;25.07;14.73;;;;;;;-145.18;100.00;47664.53;4948322;28;20051;-61
2022/03/03 01:55:49;;;;;;;25.00;13.57;;;;;;;-145.18;100.00;47670.41;4948628;28;20563;-62
2022/03/03 01:58:15;;;;;;;24.33;13.70;;;;;;;-145.18;100.00;47680.16;4949097;28;20125;-61
2022/03/03 02:00:42;;;;;;;22.95;13.57;;;;;;;-145.18;100.00;47660.63;4951840;28;20039;-61
2022/03/03 02:03:08;;;;;;;29.38;14.30;;;;;;;-145.18;100.00;47646.97;4951696;28;20122;-62
2022/03/03 02:05:33;;;;;;;29.77;14.97;;;;;;;-145.18;100.00;47662.59;4952348;28;20574;-61
2022/03/03 02:07:58;;;;;;;26.37;14.70;;;;;;;-145.18;100.00;47639.13;4951400;28;20054;-62
2022/03/03 02:10:24;;;;;;;24.60;13.77;;;;;;;-145.18;100.00;47650.88;4951602;28;20456;-61
2022/03/03 02:12:50;;;;;;;24.90;12.97;;;;;;;-145.18;100.00;47666.50;4951644;28;20065;-61
2022/03/03 02:15:18;;;;;;;32.10;14.80;;;;;;;-145.18;100.00;47619.59;4951700;28;20090;-61
2022/03/03 02:17:43;;;;;;;28.55;14.85;;;;;;;-145.18;100.00;47666.50;4934027;28;20738;-61
2022/03/03 02:20:23;;;;;;;27.70;14.73;;;;;;;-145.18;100.00;47668.44;4952080;28;20048;-62
2022/03/03 02:22:50;;;;;;;25.10;14.02;;;;;;;-145.18;100.00;47658.69;4934208;29;20496;-61
2022/03/03 02:25:16;;;;;;;36.47;15.65;;;;;;;-145.18;100.00;47693.84;4951574;28;20043;-61
2022/03/03 02:27:42;;;;;;;27.03;15.20;;;;;;;-145.18;100.00;47691.91;4918271;28;20042;-61
2022/03/03 02:30:08;;;;;;;28.63;15.13;;;;;;;-145.18;100.00;47713.38;4951684;28;20053;-61
2022/03/03 02:32:33;;;;;;;28.35;14.63;;;;;;;-145.18;100.00;47707.53;4949873;28;20118;-62
2022/03/03 02:34:59;;;;;;;29.80;15.50;;;;;;;-145.18;100.00;47742.69;4951378;28;20564;-61
2022/03/03 02:37:31;;;;;;;31.13;16.37;;;;;;;-145.18;100.00;47750.50;4951628;28;20200;-61
2022/03/03 02:39:56;;;;;;;28.80;15.88;;;;;;;-145.18;100.00;47766.13;4951724;28;20524;-62
2022/03/03 02:42:21;;;;;;;27.70;15.30;;;;;;;-145.18;100.00;47762.22;4933276;28;20054;-61
2022/03/03 02:44:47;;;;;;;27.90;15.87;;;;;;;-145.18;100.00;47701.66;4950290;28;20047;-62
2022/03/03 02:47:12;;;;;;;25.27;15.03;;;;;;;-145.18;100.00;47740.75;4951101;28;20039;-61
2022/03/03 02:49:37;;;;;;;26.87;16.03;;;;;;;-145.18;100.00;47680.16;4951212;28;20050;-62
2022/03/03 02:52:03;;;;;;;28.00;15.90;;;;;;;-145.18;100.00;47680.16;4951308;28;20459;-62
2022/03/03 02:54:29;;;;;;;28.63;15.27;;;;;;;-145.18;100.00;47598.09;4933823;28;20043;-61
2022/03/03 02:59:38;;;;;;;40.92;17.25;;;;;;;-145.18;100.00;47555.13;4932079;29;20121;-61
2022/03/03 03:02:04;;;;;;;29.50;16.00;;;;;;;-145.18;100.00;47557.06;5151503;23;20050;-61
2022/03/03 03:04:29;;;;;;;26.90;15.63;;;;;;;-145.18;100.00;47496.50;4951218;28;20051;-62
2022/03/03 03:06:54;;;;;;;29.37;16.40;;;;;;;-145.18;100.00;47488.69;4965401;28;20039;-61
2022/03/03 03:09:20;;;;;;;29.83;16.00;;;;;;;-145.18;100.00;47387.09;4949886;28;20067;-62
2022/03/03 03:11:45;;;;;;;28.47;16.00;;;;;;;-145.18;100.00;47428.13;4950217;28;20055;-62
2022/03/03 03:14:10;;;;;;;29.53;16.23;;;;;;;-145.18;100.00;47336.31;4951794;28;20472;-62
2022/03/03 03:16:36;;;;;;;29.00;16.97;;;;;;;-145.18;100.00;47441.81;4950284;28;20039;-62
2022/03/03 03:19:01;;;;;;;29.80;16.57;;;;;;;-145.18;100.00;47336.31;4950905;28;20558;-62
2022/03/03 03:21:26;;;;;;;32.20;14.90;;;;;;;-145.18;100.00;47387.09;4950797;28;20043;-62
2022/03/03 03:23:52;;;;;;;28.17;15.57;;;;;;;-145.18;100.00;47492.59;4950090;28;20050;-62
2022/03/03 03:26:17;;;;;;;26.67;16.17;;;;;;;-145.18;100.00;47410.56;4950831;28;20103;-62
2022/03/03 03:28:43;;;;;;;31.33;16.57;;;;;;;-145.18;100.00;47369.53;4950741;28;20427;-62
2022/03/03 03:31:08;;;;;;;27.23;15.77;;;;;;;-145.18;100.00;47435.94;4950576;28;20043;-62
2022/03/03 03:33:34;;;;;;;27.17;15.63;;;;;;;-145.18;100.00;47465.25;4949856;28;20659;-61
2022/03/03 03:35:59;;;;;;;27.20;16.90;;;;;;;-145.18;100.00;47461.34;4950694;28;20059;-61
2022/03/03 03:38:24;;;;;;;31.53;16.20;;;;;;;-145.18;100.00;47590.28;4950247;28;20100;-62
2022/03/03 03:40:50;;;;;;;32.27;16.33;;;;;;;-145.18;100.00;47463.31;4950537;28;20046;-62
2022/03/03 03:43:15;;;;;;;28.27;16.17;;;;;;;-145.18;100.00;47437.91;4950274;28;20101;-62
2022/03/03 03:45:41;;;;;;;29.67;15.57;;;;;;;-145.18;100.00;47678.22;4950471;28;20036;-62
2022/03/03 03:48:06;;;;;;;29.37;16.20;;;;;;;-145.18;100.00;47752.47;4949770;28;20040;-62
2022/03/03 03:50:32;;;;;;;28.57;15.93;;;;;;;-145.18;100.00;47764.19;4950509;28;20039;-62
2022/03/03 03:52:57;;;;;;;27.70;16.23;;;;;;;-145.18;100.00;47707.53;4949655;28;20039;-62
2022/03/03 03:55:23;;;;;;;33.70;16.57;;;;;;;-145.18;100.00;47645.00;4950866;28;20484;-62
2022/03/03 03:57:48;;;;;;;26.60;15.70;;;;;;;-145.18;100.00;47641.09;4949408;28;20411;-62
2022/03/03 04:00:14;;;;;;;29.10;16.10;;;;;;;-145.18;100.00;47529.72;4950521;28;20044;-62
2022/03/03 04:02:45;;;;;;;34.05;16.05;;;;;;;-145.18;100.00;47578.56;4949322;28;20138;-62
2022/03/03 04:05:11;;;;;;;28.92;16.98;;;;;;;-145.18;100.00;47609.84;4950235;28;20035;-62
2022/03/03 04:07:37;;;;;;;32.55;16.10;;;;;;;-145.18;100.00;47660.63;4949374;28;20035;-61
2022/03/03 04:10:03;;;;;;;27.50;16.27;;;;;;;-145.18;100.00;47525.81;4950303;28;20039;-62
2022/03/03 04:12:29;;;;;;;34.08;16.38;;;;;;;-145.18;100.00;47287.47;4949541;28;20059;-62
2022/03/03 04:14:54;;;;;;;28.73;17.17;;;;;;;-145.18;100.00;47281.59;4950389;28;20522;-62
2022/03/03 04:17:19;;;;;;;31.17;16.30;;;;;;;-145.18;100.00;47312.88;4949290;28;20050;-62
2022/03/03 04:19:45;;;;;;;28.80;15.57;;;;;;;-145.18;100.00;47342.16;4964763;28;20094;-62
2022/03/03 04:22:10;;;;;;;29.93;15.27;;;;;;;-145.18;100.00;47422.28;4949099;28;20408;-62
2022/03/03 04:24:36;;;;;;;29.80;16.77;;;;;;;-145.18;100.00;47199.56;4949569;28;20043;-62
2022/03/03 04:27:01;;;;;;;29.67;17.20;;;;;;;-145.18;100.00;47031.53;4949842;28;20428;-61
2022/03/03 04:29:27;;;;;;;29.23;18.13;;;;;;;-145.18;100.00;47027.63;4949747;28;20043;-62
2022/03/03 04:31:53;;;;;;;30.20;15.87;;;;;;;-145.18;100.00;47082.34;4949228;28;20059;-62
2022/03/03 04:34:19;;;;;;;32.03;16.38;;;;;;;-145.18;100.00;47115.56;4949649;28;20050;-62
2022/03/03 04:36:46;;;;;;;33.33;18.05;;;;;;;-145.18;100.00;47246.44;4948958;28;20050;-62
2022/03/03 04:39:11;;;;;;;30.77;16.05;;;;;;;-145.18;100.00;47410.56;4949266;28;20031;-62
2022/03/03 04:41:36;;;;;;;30.53;16.37;;;;;;;-145.18;100.00;47230.81;4964284;28;20039;-62
2022/03/03 04:44:02;;;;;;;30.10;16.20;;;;;;;-145.18;100.00;47217.13;4950014;28;20042;-62
2022/03/03 04:46:27;;;;;;;29.87;16.87;;;;;;;-145.18;100.00;47090.16;4964576;28;20405;-62
2022/03/03 04:48:52;;;;;;;28.07;15.93;;;;;;;-145.18;100.00;47127.28;4949120;28;20090;-62
2022/03/03 04:51:18;;;;;;;30.50;17.03;;;;;;;-145.18;100.00;47043.28;4949293;28;20591;-62
2022/03/03 04:53:43;;;;;;;29.67;16.80;;;;;;;-145.18;100.00;47017.88;4948996;28;20046;-62
2022/03/03 04:56:09;;;;;;;31.90;16.90;;;;;;;-145.18;100.00;46980.75;4950205;28;20113;-62
2022/03/03 04:58:34;;;;;;;32.80;17.03;;;;;;;-145.18;100.00;46976.84;4949269;28;20047;-62
2022/03/03 05:01:00;;;;;;;36.93;18.87;;;;;;;-145.18;100.00;46957.31;4949454;28;20032;-62
2022/03/03 05:03:25;;;;;;;37.13;16.10;;;;;;;-145.18;100.00;46924.09;4948419;28;20527;-62
2022/03/03 05:05:50;;;;;;;34.37;17.83;;;;;;;-145.18;100.00;46922.16;4948957;28;20142;-62
2022/03/03 05:08:16;;;;;;;35.70;17.77;;;;;;;-145.18;100.00;46892.84;4948970;28;20043;-62
2022/03/03 05:10:41;;;;;;;33.13;18.03;;;;;;;-145.18;100.00;46871.38;4949843;28;20123;-61
2022/03/03 05:13:07;;;;;;;30.73;16.93;;;;;;;-145.18;100.00;46834.25;4948837;28;20407;-62
2022/03/03 05:15:32;;;;;;;36.77;18.60;;;;;;;-145.18;100.00;46791.28;4949198;28;20174;-62
2022/03/03 05:18:00;;;;;;;39.10;18.03;;;;;;;-145.18;100.00;46775.66;4948607;28;20031;-62
2022/03/03 05:20:26;;;;;;;33.42;18.63;;;;;;;-145.18;100.00;46748.28;4949053;28;20043;-61
2022/03/03 05:22:51;;;;;;;31.27;17.27;;;;;;;-145.18;100.00;46730.72;4948618;28;20046;-62
2022/03/03 05:25:16;;;;;;;36.93;18.60;;;;;;;-145.18;100.00;46722.91;4949105;28;20065;-62
2022/03/03 05:27:42;;;;;;;30.87;18.67;;;;;;;-145.18;100.00;46711.19;4949309;28;20122;-62
2022/03/03 05:30:09;;;;;;;38.07;18.50;;;;;;;-145.18;100.00;46707.28;4949129;28;20043;-62
2022/03/03 05:32:36;;;;;;;32.97;18.20;;;;;;;-145.18;100.00;46701.41;4948800;28;20558;-62
2022/03/03 05:35:01;;;;;;;38.28;18.30;;;;;;;-145.18;100.00;46705.31;4952452;28;20070;-62
2022/03/03 05:37:27;;;;;;;35.03;18.53;;;;;;;-145.18;100.00;46703.38;4952422;28;20491;-62
2022/03/03 05:39:52;;;;;;;33.47;18.30;;;;;;;-145.18;100.00;46697.50;4952716;28;20038;-62
2022/03/03 05:42:20;;;;;;;32.43;18.03;;;;;;;-145.18;100.00;46693.59;4953060;28;20122;-62
2022/03/03 05:44:49;;;;;;;35.55;18.23;;;;;;;-145.18;100.00;46744.38;4952390;28;20499;-62
2022/03/03 05:47:15;;;;;;;32.05;17.65;;;;;;;-145.18;100.00;46777.59;4951845;28;20057;-62
2022/03/03 05:49:42;;;;;;;36.53;19.05;;;;;;;-145.18;100.00;46789.31;4952357;28;20050;-62
2022/03/03 05:52:09;;;;;;;35.10;18.08;;;;;;;-145.18;100.00;46771.75;4952182;28;20054;-62
2022/03/03 05:54:36;;;;;;;35.88;19.05;;;;;;;-145.18;100.00;46736.56;4952411;28;20472;-62
2022/03/03 05:57:02;;;;;;;31.23;18.10;;;;;;;-145.18;100.00;46717.03;4952311;28;20039;-62
2022/03/03 05:59:31;;;;;;;36.78;19.02;;;;;;;-145.18;100.00;46705.31;4951911;28;20407;-62
2022/03/03 06:01:58;;;;;;;33.88;18.23;;;;;;;-145.18;100.00;46695.56;4951744;28;20054;-62
2022/03/03 06:04:27;;;;;;;35.42;19.45;;;;;;;-145.18;100.00;46707.28;4967418;28;20126;-61
2022/03/03 06:07:03;;;;;;;34.53;18.88;;;;;;;-145.18;100.00;46722.91;4952169;28;20050;-61
2022/03/03 06:09:35;;;;;;;39.58;19.35;;;;;;;-145.18;100.00;46719.00;4952059;28;20047;-62
2022/03/03 06:12:10;;;;;;;34.42;18.25;;;;;;;-145.18;100.00;46754.16;4952272;28;20035;-62
2022/03/03 06:15:00;;;;;;;30.02;17.15;;;;;;;-145.18;100.00;46758.06;4952001;28;20496;-61
2022/03/03 06:17:25;;;;;;;34.50;17.88;;;;;;;-145.18;100.00;46765.88;4934419;28;20443;-62
2022/03/03 06:19:52;;;;;;;39.37;18.23;;;;;;;-145.18;100.00;46789.31;4951602;28;20051;-62
2022/03/03 06:22:19;;;;;;;35.15;19.65;;;;;;;-145.18;100.00;46773.69;4951634;28;20036;-62
2022/03/03 06:24:45;;;;;;;39.17;19.58;;;;;;;-145.18;100.00;46750.25;4951677;28;20408;-62
2022/03/03 06:27:12;;;;;;;36.20;19.02;;;;;;;-145.18;100.00;46763.91;4951829;28;20054;-62
2022/03/03 06:29:41;;;;;;;36.58;18.52;;;;;;;-145.18;100.00;46744.38;4951552;28;20042;-62
2022/03/03 06:32:07;;;;;;;33.00;18.55;;;;;;;-145.18;100.00;46773.69;4951529;28;20151;-62
2022/03/03 06:34:32;;;;;;;35.85;18.75;;;;;;;-145.18;100.00;46750.25;4950909;28;20051;-62
2022/03/03 06:36:58;;;;;;;33.77;19.07;;;;;;;-145.18;100.00;46775.66;4934354;28;20551;-62
2022/03/03 06:39:24;;;;;;;32.90;18.70;;;;;;;-145.18;100.00;46779.56;4951013;28;20039;-62
2022/03/03 06:41:50;;;;;;;34.40;17.93;;;;;;;-145.18;100.00;46771.75;4951268;28;20035;-62
2022/03/03 06:44:15;;;;;;;36.58;18.70;;;;;;;-145.18;100.00;46783.47;4949852;28;20031;-62
2022/03/03 06:46:42;;;;;;;37.10;19.50;;;;;;;-145.18;100.00;46789.31;4951390;28;20058;-62
2022/03/03 06:49:07;;;;;;;32.88;19.27;;;;;;;-145.18;100.00;46791.28;4951744;28;20047;-62
2022/03/03 06:51:40;;;;;;;35.80;19.30;;;;;;;-145.18;100.00;46799.09;4951164;28;20462;-61
2022/03/03 06:54:10;;;;;;;34.35;18.45;;;;;;;-145.18;100.00;46816.66;4951221;28;20043;-62
2022/03/03 06:56:44;;;;;;;37.15;18.77;;;;;;;-145.18;100.00;46812.75;4951415;28;20039;-62
2022/03/03 06:59:10;;;;;;;45.05;19.85;;;;;;;-145.18;100.00;46836.19;4951161;28;20046;-62
2022/03/03 07:01:36;;;;;;;35.70;18.37;;;;;;;-145.18;100.00;46840.09;4951120;28;20047;-62
2022/03/03 07:04:01;;;;;;;37.73;19.07;;;;;;;-145.18;100.00;46865.50;4950583;28;20047;-62
2022/03/03 07:06:28;;;;;;;32.87;18.17;;;;;;;-145.18;100.00;46877.22;4951381;28;20047;-62
2022/03/03 07:08:57;;;;;;;40.55;19.45;;;;;;;-145.18;100.00;46883.09;4950614;28;20122;-62
2022/03/03 07:11:24;;;;;;;35.55;18.67;;;;;;;-145.18;100.00;46845.97;4951237;28;20122;-62
2022/03/03 07:13:49;;;;;;;33.30;18.35;;;;;;;-145.18;100.00;46902.63;4950960;28;20443;-61
2022/03/03 07:16:22;;;;;;;34.20;19.53;;;;;;;-145.18;100.00;46947.53;4951063;28;20051;-62
2022/03/03 07:18:52;;;;;;;36.47;18.63;;;;;;;-145.18;100.00;46959.25;4950400;28;20043;-62
2022/03/03 07:21:31;;;;;;;38.15;18.67;;;;;;;-145.18;100.00;46980.75;4950761;28;20086;-62
2022/03/03 07:24:11;;;;;;;34.05;18.08;;;;;;;-145.18;100.00;47015.91;4950196;28;20044;-62
2022/03/03 07:26:37;;;;;;;37.80;16.38;;;;;;;-145.18;100.00;47103.81;4951019;28;20118;-62
2022/03/03 07:29:04;;;;;;;35.53;18.05;;;;;;;-145.18;100.00;47418.38;4950037;28;20523;-62
2022/03/03 07:31:33;;;;;;;31.40;17.58;;;;;;;-145.18;100.00;47502.38;4950735;28;20504;-62
2022/03/03 07:34:01;;;;;;;29.90;17.83;;;;;;;-145.18;100.00;47658.69;4949858;28;20086;-62
2022/03/03 07:36:36;;;;;;;32.17;17.17;;;;;;;-145.18;100.00;47701.66;4950719;28;20087;-62
2022/03/03 07:39:05;;;;;;;29.00;16.13;;;;;;;-145.18;100.00;47699.72;4950219;28;20526;-62
2022/03/03 07:41:31;;;;;;;37.72;16.90;;;;;;;-145.18;100.00;47707.53;4950466;28;20666;-62
2022/03/03 07:43:58;;;;;;;33.63;17.97;;;;;;;-145.18;100.00;47687.97;4932688;28;20127;-62
2022/03/03 07:46:25;;;;;;;34.08;16.92;;;;;;;-145.18;100.00;47719.25;4950678;28;20527;-62
2022/03/03 07:48:53;;;;;;;35.63;17.77;;;;;;;-145.18;100.00;47680.16;4949699;28;20722;-62
2022/03/03 07:51:23;;;;;;;34.72;17.92;;;;;;;-145.18;100.00;47691.91;4950482;28;20043;-62
2022/03/03 07:53:49;;;;;;;31.20;18.05;;;;;;;-145.18;100.00;47682.13;4949609;28;20039;-62
2022/03/03 07:56:28;;;;;;;34.55;18.38;;;;;;;-145.18;100.00;47670.41;4950332;28;20062;-62
2022/03/03 07:59:04;;;;;;;30.60;17.17;;;;;;;-145.18;100.00;47672.34;4949812;28;20035;-62
2022/03/03 08:01:32;;;;;;;30.00;17.52;;;;;;;-145.18;100.00;47629.38;4950304;28;20047;-62
2022/03/03 08:04:00;;;;;;;35.42;16.58;;;;;;;-145.18;100.00;47603.97;4949133;28;20043;-62
2022/03/03 08:06:26;;;;;;;28.90;15.68;;;;;;;-145.18;100.00;47629.38;4950030;28;20078;-62
2022/03/03 08:08:55;;;;;;;32.90;17.27;;;;;;;-145.18;100.00;47602.00;4949495;28;20032;-62
2022/03/03 08:11:24;;;;;;;31.98;16.50;;;;;;;-145.18;100.00;47588.34;4949892;28;20035;-62
2022/03/03 08:13:52;;;;;;;28.50;16.23;;;;;;;-145.18;100.00;47594.19;4949264;28;20035;-62
2022/03/03 08:16:18;;;;;;;28.70;16.27;;;;;;;-145.18;100.00;47586.38;4964682;28;20078;-62
2022/03/03 08:18:46;;;;;;;25.63;14.07;;;;;;;-145.18;100.00;47596.16;4949342;28;20031;-62
2022/03/03 08:21:13;;;;;;;30.83;16.05;;;;;;;-145.18;100.00;47598.09;4949625;28;20031;-63
2022/03/03 08:23:40;;;;;;;30.00;15.35;;;;;;;-145.18;100.00;47568.81;4950014;28;20407;-62
2022/03/03 08:26:06;;;;;;;27.90;16.20;;;;;;;-145.18;100.00;47562.94;4949702;28;20047;-62
2022/03/03 08:28:32;;;;;;;31.53;16.17;;;;;;;-145.18;100.00;47551.22;4949263;28;20049;-62
2022/03/03 08:31:03;;;;;;;29.40;15.67;;;;;;;-145.18;100.00;47559.03;4949468;28;20277;-62
2022/03/03 08:33:56;;;;;;;26.92;14.35;;;;;;;-145.18;100.00;47564.91;4949240;28;20519;-62
2022/03/03 08:36:28;;;;;;;25.77;15.75;;;;;;;-145.18;100.00;47555.13;4950180;28;20072;-62
2022/03/03 08:38:58;;;;;;;26.90;15.60;;;;;;;-145.18;100.00;47541.44;4949295;28;20039;-62
2022/03/03 08:41:24;;;;;;;28.42;16.15;;;;;;;-145.18;100.00;47523.88;4949381;28;20043;-62
2022/03/03 08:43:52;;;;;;;30.40;16.83;;;;;;;-145.18;100.00;47539.50;4948658;28;20043;-62
2022/03/03 08:46:25;;;;;;;27.45;15.88;;;;;;;-145.18;100.00;47533.63;4949858;28;20050;-62
2022/03/03 08:48:52;;;;;;;25.92;15.57;;;;;;;-145.18;100.00;47551.22;4931960;28;20578;-62
2022/03/03 08:51:19;;;;;;;27.45;15.75;;;;;;;-145.18;100.00;47533.63;4949488;28;20046;-62
2022/03/03 08:53:48;;;;;;;28.40;15.50;;;;;;;-145.18;100.00;47531.69;4948776;28;20098;-62
2022/03/03 08:56:14;;;;;;;24.30;15.48;;;;;;;-145.18;100.00;47541.44;4949400;28;20047;-62
2022/03/03 08:58:39;;;;;;;26.70;13.93;;;;;;;-145.18;100.00;47500.41;4931916;28;20445;-62
2022/03/03 09:01:05;;;;;;;25.57;14.70;;;;;;;-145.18;100.00;47521.91;4949214;28;20054;-63
2022/03/03 09:03:30;;;;;;;28.20;15.70;;;;;;;-145.18;100.00;47521.91;4949160;28;20512;-62
2022/03/03 09:05:56;;;;;;;26.10;15.07;;;;;;;-145.18;100.00;47512.16;4949155;28;20057;-62
2022/03/03 09:08:23;;;;;;;25.10;13.30;;;;;;;-145.18;100.00;47490.66;4951324;28;20393;-62
2022/03/03 09:10:49;;;;;;;24.50;14.85;;;;;;;-145.18;100.00;47476.97;4953141;28;20036;-62
2022/03/03 09:13:15;;;;;;;29.10;15.00;;;;;;;-145.18;100.00;47502.38;4952815;28;20039;-62
2022/03/03 09:15:40;;;;;;;27.47;14.57;;;;;;;-145.18;100.00;47488.69;4953233;28;20039;-63
2022/03/03 09:18:06;;;;;;;26.40;14.90;;;;;;;-145.18;100.00;47480.88;4952920;28;20758;-62
2022/03/03 09:20:33;;;;;;;28.27;16.00;;;;;;;-145.18;100.00;47488.69;4953085;28;20500;-62
2022/03/03 09:22:58;;;;;;;28.53;15.47;;;;;;;-145.18;100.00;47473.06;4952309;28;20103;-62
2022/03/03 09:25:24;;;;;;;26.93;14.77;;;;;;;-145.18;100.00;47494.56;4952936;28;20297;-63
2022/03/03 09:27:49;;;;;;;25.97;15.07;;;;;;;-145.18;100.00;47478.94;4952630;28;20408;-62
2022/03/03 09:30:15;;;;;;;28.33;14.17;;;;;;;-145.18;100.00;47453.53;4952752;28;20134;-63
2022/03/03 09:32:40;;;;;;;23.03;14.37;;;;;;;-145.18;100.00;47461.34;4953572;28;20067;-62
2022/03/03 09:35:07;;;;;;;28.30;15.27;;;;;;;-145.18;100.00;47457.44;4951868;28;20055;-63
2022/03/03 09:37:32;;;;;;;24.30;15.47;;;;;;;-145.18;100.00;47441.81;4952785;28;20039;-62
2022/03/03 09:39:58;;;;;;;26.83;14.53;;;;;;;-145.18;100.00;47453.53;4952352;28;20282;-63
2022/03/03 09:42:30;;;;;;;29.13;15.80;;;;;;;-145.18;100.00;47453.53;4952891;28;20500;-63
2022/03/03 09:44:55;;;;;;;24.57;15.83;;;;;;;-145.18;100.00;47422.28;4951951;28;20073;-62
2022/03/03 09:47:21;;;;;;;27.40;15.50;;;;;;;-145.18;100.00;47430.09;4952498;28;20403;-63
2022/03/03 09:49:46;;;;;;;26.90;15.90;;;;;;;-145.18;100.00;47432.03;4952390;28;20047;-62
2022/03/03 09:52:14;;;;;;;30.43;15.47;;;;;;;-145.18;100.00;47437.91;4952676;28;20047;-62
2022/03/03 09:54:46;;;;;;;23.50;14.33;;;;;;;-145.18;100.00;47418.38;4934973;28;20058;-63
2022/03/03 09:57:12;;;;;;;23.73;15.50;;;;;;;-145.18;100.00;47432.03;4952449;28;20308;-62
2022/03/03 09:59:37;;;;;;;30.27;15.00;;;;;;;-145.18;100.00;47430.09;4952171;28;20328;-62
2022/03/03 10:02:05;;;;;;;27.10;14.90;;;;;;;-145.18;100.00;47422.28;4952107;28;20467;-62
2022/03/03 10:04:30;;;;;;;27.30;14.07;;;;;;;-145.18;100.00;47432.03;4951897;28;20046;-63
2022/03/03 10:07:03;;;;;;;28.70;14.53;;;;;;;-145.18;100.00;47389.06;4966705;28;20642;-63
2022/03/03 10:09:28;;;;;;;28.00;14.10;;;;;;;-145.18;100.00;47392.97;4951822;28;20456;-63
2022/03/03 10:12:05;;;;;;;25.17;14.97;;;;;;;-145.18;100.00;47410.56;4951947;28;20288;-63
2022/03/03 10:14:37;;;;;;;23.77;15.03;;;;;;;-145.18;100.00;47396.88;4951675;28;20035;-63
2022/03/03 10:17:05;;;;;;;25.07;14.87;;;;;;;-145.18;100.00;47398.81;4951928;28;20282;-63
2022/03/03 10:19:31;;;;;;;25.83;13.97;;;;;;;-145.18;100.00;47381.25;4950877;28;20388;-63
2022/03/03 10:21:57;;;;;;;25.23;14.67;;;;;;;-145.18;100.00;47394.91;4951974;28;20281;-63
2022/03/03 10:24:24;;;;;;;23.83;13.80;;;;;;;-145.18;100.00;47379.28;4952239;28;20269;-63
2022/03/03 10:27:02;;;;;;;21.77;13.80;;;;;;;-145.18;100.00;47389.06;4951663;28;20122;-63
2022/03/03 10:29:28;;;;;;;20.43;12.97;;;;;;;-145.18;100.00;47392.97;4951518;28;20277;-63
2022/03/03 10:31:55;;;;;;;22.23;12.90;;;;;;;-145.18;100.00;47385.16;4951466;28;20312;-63
2022/03/03 10:34:26;;;;;;;23.63;13.20;;;;;;;-145.18;100.00;47383.19;4951353;28;20305;-63
2022/03/03 10:37:01;;;;;;;21.57;12.47;;;;;;;-145.18;100.00;47373.44;4934396;28;20774;-63
2022/03/03 10:39:48;;;;;;;26.43;11.83;;;;;;;-145.18;100.00;47381.25;4951132;28;20633;-63
2022/03/03 10:42:21;;;;;;;20.17;13.03;;;;;;;-145.18;100.00;47377.34;4943931;28;20310;-63
2022/03/03 10:44:47;;;;;;;19.63;11.57;;;;;;;-145.18;100.00;47363.66;4961219;28;20721;-63
2022/03/03 10:47:24;;;;;;;18.73;10.83;;;;;;;-145.18;100.00;47375.38;4951757;28;20754;-63
2022/03/03 10:49:53;;;;;;;18.37;11.40;;;;;;;-145.18;100.00;47342.16;4950817;28;20277;-63
2022/03/03 10:52:21;;;;;;;21.43;12.60;;;;;;;-145.18;100.00;47355.84;4951370;28;20277;-62
2022/03/03 10:54:52;;;;;;;20.97;11.70;;;;;;;-145.18;100.00;47336.31;4950717;28;20289;-63
2022/03/03 10:57:38;;;;;;;29.47;12.87;;;;;;;-145.18;100.00;47344.13;4933926;28;20289;-63